Time;durP1;ratioP1;P1;durP2;ratioP2;P2;SDS_P1;SDS_P2;PMS_P1;PMS_P2;Temp;Humidity;BMP_temperature;BMP_pressure;BME280_temperature;BME280_humidity;BME280_pressure;Samples;Min_cycle;Max_cycle;Signal;HPM_P1;HPM_P2
2023/05/28 00:02:44;;;;;;;18.10;7.10;;;;;;;13.22;86.98;102208.50;6249231;22;20460;-78
2023/05/28 00:05:11;;;;;;;17.33;7.18;;;;;;;13.18;87.17;102199.09;6247333;22;20017;-77
2023/05/28 00:07:39;;;;;;;16.63;7.00;;;;;;;13.14;87.84;102201.06;6249175;22;20435;-77
2023/05/28 00:10:06;;;;;;;23.45;7.50;;;;;;;13.12;87.78;102196.13;6249082;22;20017;-77
2023/05/28 00:12:33;;;;;;;19.38;7.45;;;;;;;13.10;88.34;102197.72;6248674;22;20051;-77
2023/05/28 00:15:00;;;;;;;17.30;6.85;;;;;;;13.05;88.16;102196.31;6249292;22;20017;-77
2023/05/28 00:17:27;;;;;;;22.63;7.75;;;;;;;13.03;88.64;102194.06;6246877;22;20024;-77
2023/05/28 00:19:54;;;;;;;16.77;7.13;;;;;;;13.02;88.62;102199.81;6249569;22;20442;-77
2023/05/28 00:22:21;;;;;;;20.17;7.78;;;;;;;13.00;88.59;102202.16;6249109;22;20407;-77
2023/05/28 00:24:48;;;;;;;16.50;7.38;;;;;;;12.96;88.92;102196.91;6248817;22;20013;-77
2023/05/28 00:27:14;;;;;;;23.15;7.55;;;;;;;12.91;89.44;102199.34;6248099;22;20366;-78
2023/05/28 00:29:43;;;;;;;25.83;7.40;;;;;;;12.87;89.65;102201.34;6248890;22;20435;-78
2023/05/28 00:32:10;;;;;;;20.88;6.88;;;;;;;12.84;90.03;102202.94;6248673;22;20040;-78
2023/05/28 00:34:36;;;;;;;18.23;7.07;;;;;;;12.81;90.31;102203.03;6246876;22;20024;-77
2023/05/28 00:37:03;;;;;;;16.63;6.55;;;;;;;12.77;90.90;102195.13;6247211;22;20096;-78
2023/05/28 00:39:30;;;;;;;18.08;7.25;;;;;;;12.75;90.84;102192.09;6248677;22;20019;-77
2023/05/28 00:42:02;;;;;;;24.30;7.80;;;;;;;12.72;91.48;102190.28;6248600;22;20012;-77
2023/05/28 00:44:31;;;;;;;14.13;6.68;;;;;;;12.70;91.10;102189.94;6221038;22;20024;-77
2023/05/28 00:46:59;;;;;;;24.85;7.57;;;;;;;12.67;91.11;102182.75;6246994;22;20055;-77
2023/05/28 00:49:26;;;;;;;16.05;8.07;;;;;;;12.65;91.69;102185.09;6248440;22;20019;-77
2023/05/28 00:51:55;;;;;;;18.42;7.43;;;;;;;12.61;91.68;102171.81;6248587;22;20047;-77
2023/05/28 00:54:23;;;;;;;19.63;7.22;;;;;;;12.58;91.48;102167.31;6249774;22;20020;-76
2023/05/28 00:56:54;;;;;;;20.63;7.13;;;;;;;12.56;91.79;102171.56;6247811;22;20537;-77
2023/05/28 00:59:24;;;;;;;18.83;7.53;;;;;;;12.53;91.67;102164.41;6222666;22;20020;-77
2023/05/28 01:01:50;;;;;;;15.88;6.80;;;;;;;12.50;91.67;102159.88;6248653;22;20071;-77
2023/05/28 01:04:17;;;;;;;21.08;7.18;;;;;;;12.46;91.92;102167.22;6248100;22;20067;-77
2023/05/28 01:06:45;;;;;;;18.35;6.90;;;;;;;12.43;91.73;102166.13;6250131;22;20031;-77
2023/05/28 01:09:13;;;;;;;19.13;7.63;;;;;;;12.41;91.77;102162.38;6247853;22;20547;-77
2023/05/28 01:11:42;;;;;;;20.98;7.22;;;;;;;12.37;91.85;102159.06;6249474;22;20367;-77
2023/05/28 01:14:10;;;;;;;17.73;7.78;;;;;;;12.34;91.75;102157.97;6249899;22;20012;-77
2023/05/28 01:16:37;;;;;;;16.48;7.47;;;;;;;12.31;91.93;102156.91;6247616;22;20028;-77
2023/05/28 01:19:08;;;;;;;24.08;7.63;;;;;;;12.26;91.31;102160.06;6250189;22;20017;-78
2023/05/28 01:21:40;;;;;;;21.77;7.18;;;;;;;12.23;92.02;102152.88;6249947;22;20016;-78
2023/05/28 01:24:08;;;;;;;;;;;;;;;12.21;90.58;102149.88;6248798;22;20088;-77
2023/05/28 01:26:35;;;;;;;23.92;7.00;;;;;;;12.18;92.08;102150.69;6249286;22;19978;-77
2023/05/28 01:29:14;;;;;;;19.65;7.47;;;;;;;12.15;91.71;102156.13;6248371;22;20454;-78
2023/05/28 01:31:42;;;;;;;15.07;6.90;;;;;;;12.14;92.23;102155.38;6248038;22;20091;-77
2023/05/28 01:34:10;;;;;;;20.00;7.40;;;;;;;12.13;92.14;102155.78;6247887;22;20464;-77
2023/05/28 01:36:43;;;;;;;16.55;7.60;;;;;;;12.10;92.53;102154.69;6249737;22;20048;-77
2023/05/28 01:39:15;;;;;;;20.05;7.65;;;;;;;12.08;92.89;102159.69;6249201;22;20472;-77
2023/05/28 01:41:45;;;;;;;19.13;8.00;;;;;;;12.03;92.95;102157.50;6249632;22;20454;-77
2023/05/28 01:44:15;;;;;;;16.63;7.05;;;;;;;12.01;92.85;102157.94;6247921;22;20055;-76
2023/05/28 01:46:45;;;;;;;22.38;7.88;;;;;;;11.97;93.28;102154.59;6247767;22;20096;-76
2023/05/28 01:49:13;;;;;;;21.33;7.18;;;;;;;11.96;93.51;102160.34;6247570;22;20096;-76
2023/05/28 01:51:39;;;;;;;20.40;7.28;;;;;;;11.91;93.52;102163.50;6249480;22;20013;-76
2023/05/28 01:54:06;;;;;;;17.70;6.80;;;;;;;11.88;93.36;102161.66;6222100;22;20434;-77
2023/05/28 01:56:33;;;;;;;19.20;6.88;;;;;;;11.85;93.77;102151.81;6247530;22;20477;-78
2023/05/28 01:59:00;;;;;;;15.80;7.70;;;;;;;11.83;94.30;102162.91;6248046;22;20031;-78
2023/05/28 02:01:31;;;;;;;18.55;7.75;;;;;;;11.84;93.22;102163.66;6248866;22;20013;-77
2023/05/28 02:04:00;;;;;;;17.15;7.55;;;;;;;11.81;93.25;102169.81;6248185;22;20023;-76
2023/05/28 02:06:30;;;;;;;16.33;7.07;;;;;;;11.78;93.88;102163.41;6247448;22;20049;-77
2023/05/28 02:08:56;;;;;;;15.02;7.80;;;;;;;11.77;93.99;102163.81;6249520;22;20021;-77
2023/05/28 02:11:23;;;;;;;15.27;7.65;;;;;;;11.74;93.84;102161.94;6247755;22;20047;-77
2023/05/28 02:13:52;;;;;;;20.05;7.72;;;;;;;11.74;93.93;102161.94;6248120;22;20103;-77
2023/05/28 02:16:19;;;;;;;19.25;7.32;;;;;;;11.73;93.85;102161.19;6247719;22;20382;-77
2023/05/28 02:18:46;;;;;;;14.77;7.53;;;;;;;11.73;94.01;102163.09;6247802;22;20518;-77
2023/05/28 02:21:13;;;;;;;22.27;7.97;;;;;;;11.70;94.17;102159.34;6247933;22;20020;-76
2023/05/28 02:23:46;;;;;;;17.30;7.90;;;;;;;11.68;94.44;102162.41;6221835;22;20016;-76
2023/05/28 02:26:16;;;;;;;18.20;7.32;;;;;;;11.68;94.47;102159.00;6249640;22;20021;-76
2023/05/28 02:28:43;;;;;;;19.63;7.35;;;;;;;11.67;94.65;102155.56;6247526;22;20425;-76
2023/05/28 02:31:10;;;;;;;18.50;7.90;;;;;;;11.65;94.69;102151.81;6249521;22;20490;-76
2023/05/28 02:33:41;;;;;;;22.15;7.63;;;;;;;11.65;95.08;102147.22;6247669;22;20486;-76
2023/05/28 02:36:11;;;;;;;15.30;7.80;;;;;;;11.63;95.03;102148.81;6249663;22;20375;-76
2023/05/28 02:38:39;;;;;;;17.50;7.85;;;;;;;11.62;95.26;102150.72;6247397;22;20248;-76
2023/05/28 02:41:07;;;;;;;17.27;7.57;;;;;;;11.62;94.93;102150.72;6249439;22;20040;-78
2023/05/28 02:43:35;;;;;;;17.63;6.90;;;;;;;11.60;95.19;102150.38;6247349;22;20016;-76
2023/05/28 02:46:05;;;;;;;18.58;7.28;;;;;;;11.60;95.25;102154.97;6247658;22;20401;-76
2023/05/28 02:48:32;;;;;;;16.20;7.75;;;;;;;11.59;95.39;102158.81;6247524;22;20023;-76
2023/05/28 02:50:59;;;;;;;18.90;7.18;;;;;;;11.56;95.41;102163.06;6222935;22;20023;-76
2023/05/28 02:53:32;;;;;;;16.42;7.38;;;;;;;11.56;95.61;102164.97;6248606;22;20104;-76
2023/05/28 02:55:59;;;;;;;16.25;7.40;;;;;;;11.53;95.58;102168.47;6247988;22;20398;-76
2023/05/28 02:58:25;;;;;;;22.10;7.65;;;;;;;11.51;95.11;102160.13;6246816;22;20458;-75
2023/05/28 03:00:52;;;;;;;14.23;7.00;;;;;;;11.49;95.30;102168.53;6247856;22;20454;-76
2023/05/28 03:03:19;;;;;;;15.07;7.28;;;;;;;11.49;95.26;102170.44;6247323;22;20017;-75
2023/05/28 03:05:47;;;;;;;18.00;7.45;;;;;;;11.47;95.42;102170.84;6222341;22;20108;-75
2023/05/28 03:08:14;;;;;;;13.07;7.10;;;;;;;11.45;95.23;102167.84;6246697;22;20021;-75
2023/05/28 03:10:40;;;;;;;23.50;8.35;;;;;;;11.46;94.93;102166.69;6247513;22;20021;-76
2023/05/28 03:13:08;;;;;;;14.00;7.28;;;;;;;11.44;95.21;102163.66;6249239;22;20017;-75
2023/05/28 03:15:35;;;;;;;17.38;7.32;;;;;;;11.44;95.06;102165.59;6247477;22;20056;-75
2023/05/28 03:18:02;;;;;;;14.50;6.93;;;;;;;11.44;95.25;102170.91;6247559;22;20023;-75
2023/05/28 03:20:31;;;;;;;14.82;7.15;;;;;;;11.41;95.49;102164.50;6246612;22;20016;-76
2023/05/28 03:22:58;;;;;;;15.55;7.28;;;;;;;11.40;95.22;102168.31;6247802;22;20013;-75
2023/05/28 03:25:26;;;;;;;20.10;7.68;;;;;;;11.38;95.40;102164.56;6246840;22;20478;-75
2023/05/28 03:27:53;;;;;;;15.95;7.55;;;;;;;11.35;95.58;102169.53;6247394;22;20071;-75
2023/05/28 03:30:24;;;;;;;18.60;7.37;;;;;;;11.34;95.59;102170.69;6246579;22;20469;-75
2023/05/28 03:32:54;;;;;;;12.23;6.85;;;;;;;11.30;95.77;102169.25;6247362;22;20067;-75
2023/05/28 03:35:21;;;;;;;14.88;7.30;;;;;;;11.30;95.58;102174.59;6246456;22;20031;-75
2023/05/28 03:37:49;;;;;;;15.27;7.50;;;;;;;11.29;95.83;102168.50;6222316;22;20023;-75
2023/05/28 03:40:16;;;;;;;15.60;6.95;;;;;;;11.28;95.97;102164.34;6248790;22;20013;-76
2023/05/28 03:42:43;;;;;;;16.27;7.82;;;;;;;11.26;96.53;102164.00;6248538;22;20557;-75
2023/05/28 03:45:10;;;;;;;15.85;7.10;;;;;;;11.25;96.41;102170.47;6248997;22;20075;-75
2023/05/28 03:47:37;;;;;;;17.65;7.75;;;;;;;11.25;96.52;102165.16;6247287;22;20012;-75
2023/05/28 03:50:05;;;;;;;21.05;8.32;;;;;;;11.26;97.35;102165.91;6246783;22;20017;-75
2023/05/28 03:52:32;;;;;;;19.65;8.60;;;;;;;11.25;97.73;102172.41;6247151;22;20470;-75
2023/05/28 03:54:59;;;;;;;12.88;7.30;;;;;;;11.25;97.02;102180.41;6247409;22;20035;-75
2023/05/28 03:57:26;;;;;;;15.48;8.23;;;;;;;11.25;97.48;102181.16;6246261;22;20036;-75
2023/05/28 03:59:58;;;;;;;17.92;7.60;;;;;;;11.28;97.36;102185.66;6247215;22;20021;-75
2023/05/28 04:02:24;;;;;;;16.73;8.23;;;;;;;11.28;97.82;102188.34;6248460;22;20071;-75
2023/05/28 04:04:51;;;;;;;17.00;7.35;;;;;;;11.31;97.78;102182.19;6246782;22;20028;-75
2023/05/28 04:07:18;;;;;;;18.55;8.05;;;;;;;11.34;97.58;102178.69;6248915;22;20083;-75
2023/05/28 04:09:45;;;;;;;16.45;7.72;;;;;;;11.39;97.80;102174.06;6246996;22;20079;-75
2023/05/28 04:12:12;;;;;;;18.52;7.68;;;;;;;11.39;97.53;102179.38;6246945;22;20063;-75
2023/05/28 04:14:40;;;;;;;25.58;8.30;;;;;;;11.42;97.31;102174.00;6246975;22;20102;-75
2023/05/28 04:17:08;;;;;;;13.63;7.38;;;;;;;11.46;97.53;102165.94;6246658;22;20658;-75
2023/05/28 04:19:35;;;;;;;15.18;8.02;;;;;;;11.49;97.31;102159.78;6248304;22;20091;-75
2023/05/28 04:22:01;;;;;;;16.75;7.95;;;;;;;11.51;97.00;102168.88;6247720;22;20026;-76
2023/05/28 04:24:28;;;;;;;19.15;7.32;;;;;;;11.50;96.94;102179.94;6249576;22;20063;-76
2023/05/28 04:26:56;;;;;;;18.45;8.13;;;;;;;11.50;97.15;102186.03;6250962;22;20055;-76
2023/05/28 04:29:24;;;;;;;18.92;7.78;;;;;;;11.47;97.67;102184.19;6250115;22;20098;-75
2023/05/28 04:31:51;;;;;;;16.85;7.75;;;;;;;11.49;97.24;102187.19;6250551;22;20017;-76
2023/05/28 04:34:18;;;;;;;18.75;7.97;;;;;;;11.54;97.21;102189.38;6249626;22;20059;-76
2023/05/28 04:36:45;;;;;;;17.05;8.02;;;;;;;11.56;96.68;102187.06;6250349;22;20048;-76
2023/05/28 04:39:12;;;;;;;21.02;7.78;;;;;;;11.59;96.72;102183.56;6250231;22;20020;-76
2023/05/28 04:41:38;;;;;;;17.35;7.70;;;;;;;11.59;96.69;102191.56;6250125;22;20040;-76
2023/05/28 04:44:05;;;;;;;17.83;7.32;;;;;;;11.60;96.53;102186.97;6250316;22;20025;-76
2023/05/28 04:46:33;;;;;;;11.23;6.72;;;;;;;11.62;96.22;102193.41;6249935;22;20017;-76
2023/05/28 04:49:01;;;;;;;13.50;7.13;;;;;;;11.66;96.07;102190.66;6249587;22;20472;-75
2023/05/28 04:51:28;;;;;;;12.32;7.88;;;;;;;11.65;95.97;102197.91;6251824;22;20013;-75
2023/05/28 04:53:54;;;;;;;15.20;7.40;;;;;;;11.67;95.69;102195.59;6250693;22;20622;-76
2023/05/28 04:56:25;;;;;;;15.63;8.05;;;;;;;11.72;95.91;102193.59;6249891;22;20013;-75
2023/05/28 04:58:51;;;;;;;21.17;7.88;;;;;;;11.76;95.09;102191.63;6251787;22;20051;-76
2023/05/28 05:01:19;;;;;;;14.50;7.25;;;;;;;11.80;94.76;102197.66;6251811;22;20066;-76
2023/05/28 05:03:46;;;;;;;11.40;7.13;;;;;;;12.22;95.46;102196.00;6249324;22;20075;-75
2023/05/28 05:06:13;;;;;;;15.30;7.70;;;;;;;14.01;89.54;102193.69;6252035;22;20012;-75
2023/05/28 05:08:40;;;;;;;16.67;7.55;;;;;;;16.25;78.13;102216.34;6252069;22;20089;-75
2023/05/28 05:11:08;;;;;;;16.92;7.35;;;;;;;17.44;70.09;102205.69;6249916;22;20468;-75
2023/05/28 05:13:34;;;;;;;15.07;7.25;;;;;;;18.47;65.60;102211.00;6250051;22;20107;-75
2023/05/28 05:16:01;;;;;;;14.27;7.20;;;;;;;19.27;62.66;102207.41;6250175;22;20105;-75
2023/05/28 05:18:28;;;;;;;21.60;7.32;;;;;;;19.87;59.22;102217.00;6248947;22;20488;-76
2023/05/28 05:20:55;;;;;;;14.70;6.68;;;;;;;20.27;57.87;102217.09;6250305;22;20056;-76
2023/05/28 05:23:22;;;;;;;11.23;6.78;;;;;;;20.87;55.49;102220.28;6250146;22;20032;-76
2023/05/28 05:25:49;;;;;;;12.25;6.28;;;;;;;21.28;53.98;102210.13;6251910;22;20041;-75
2023/05/28 05:28:16;;;;;;;16.95;7.90;;;;;;;21.55;53.38;102217.75;6249913;22;20457;-75
2023/05/28 05:30:43;;;;;;;14.95;7.13;;;;;;;21.84;51.83;102214.03;6249826;22;20023;-75
2023/05/28 05:33:10;;;;;;;10.82;6.85;;;;;;;22.00;50.66;102218.03;6249070;22;20414;-75
2023/05/28 05:35:56;;;;;;;17.90;7.28;;;;;;;21.91;51.30;102208.16;6250187;22;20482;-75
2023/05/28 05:38:52;;;;;;;15.30;6.90;;;;;;;22.09;50.92;102214.44;6229705;22;20460;-75
2023/05/28 05:41:39;;;;;;;13.60;6.93;;;;;;;22.05;51.11;102209.22;6248997;22;20024;-76
2023/05/28 05:44:10;;;;;;;14.13;7.20;;;;;;;21.89;50.45;102207.91;6248128;22;20435;-75
2023/05/28 05:46:37;;;;;;;14.65;6.75;;;;;;;21.70;50.92;102211.44;6247389;22;20520;-75
2023/05/28 05:49:03;;;;;;;12.60;6.53;;;;;;;21.49;51.11;102214.25;6248279;22;20021;-75
2023/05/28 05:51:32;;;;;;;15.40;6.88;;;;;;;21.36;51.53;102215.84;6248115;22;20083;-76
2023/05/28 05:53:59;;;;;;;16.13;6.85;;;;;;;21.10;52.28;102221.25;6247664;22;20076;-75
2023/05/28 05:56:27;;;;;;;14.05;6.97;;;;;;;20.88;52.65;102219.78;6247828;22;20017;-76
2023/05/28 05:58:53;;;;;;;11.02;6.22;;;;;;;20.71;53.62;102218.13;6247982;22;20033;-76
2023/05/28 06:01:21;;;;;;;17.30;6.40;;;;;;;20.55;53.99;102219.41;6247345;22;20023;-75
2023/05/28 06:03:48;;;;;;;15.15;6.70;;;;;;;19.92;54.85;102210.94;6250485;22;20477;-75
2023/05/28 06:06:36;;;;;;;14.95;6.93;;;;;;;19.70;55.63;102211.31;6250928;22;20025;-77
2023/05/28 06:09:12;;;;;;;22.77;7.03;;;;;;;19.56;56.16;102207.44;6249790;22;20387;-77
2023/05/28 06:11:51;;;;;;;13.30;6.53;;;;;;;19.48;56.96;102214.41;6246138;22;20075;-77
2023/05/28 06:14:19;;;;;;;12.00;6.75;;;;;;;19.40;57.40;102217.94;6220623;22;20025;-77
2023/05/28 06:16:46;;;;;;;14.80;6.72;;;;;;;19.23;57.64;102218.38;6245647;22;20024;-75
2023/05/28 06:19:14;;;;;;;13.43;6.57;;;;;;;19.36;57.96;102217.38;6247820;22;20221;-78
2023/05/28 06:21:40;;;;;;;12.27;7.22;;;;;;;19.27;57.42;102216.25;6249115;22;20012;-76
2023/05/28 06:24:07;;;;;;;16.00;6.50;;;;;;;19.39;57.71;102225.28;6223339;22;20027;-77
2023/05/28 06:26:35;;;;;;;12.02;6.82;;;;;;;19.39;57.40;102225.28;6248971;22;20079;-78
2023/05/28 06:29:01;;;;;;;16.30;7.28;;;;;;;19.32;57.99;102222.94;6223188;22;20071;-74
2023/05/28 06:31:30;;;;;;;14.73;7.30;;;;;;;19.26;58.65;102224.81;6248590;22;20016;-76
2023/05/28 06:33:57;;;;;;;10.98;6.65;;;;;;;19.34;59.22;102220.53;6248939;22;20023;-76
2023/05/28 06:36:23;;;;;;;12.48;6.75;;;;;;;19.53;58.38;102213.03;6248166;22;20532;-75
2023/05/28 06:38:50;;;;;;;10.73;6.55;;;;;;;19.44;58.38;102221.94;6223580;22;20446;-75
2023/05/28 06:41:17;;;;;;;13.27;6.68;;;;;;;19.43;57.86;102206.19;6248052;22;20201;-74
2023/05/28 06:43:47;;;;;;;17.58;6.82;;;;;;;19.49;58.29;102218.59;6248028;22;20017;-78
2023/05/28 06:46:43;;;;;;;14.70;6.70;;;;;;;19.61;58.06;102217.56;6232764;22;20052;-76
2023/05/28 06:49:12;;;;;;;14.65;6.90;;;;;;;19.70;57.90;102222.13;6223347;22;20021;-74
2023/05/28 06:51:39;;;;;;;14.23;6.80;;;;;;;19.53;57.87;102219.19;6248478;22;20012;-76
2023/05/28 06:54:06;;;;;;;20.08;7.45;;;;;;;19.54;57.99;102214.53;6250032;22;20020;-76
2023/05/28 06:56:34;;;;;;;12.43;6.90;;;;;;;19.75;57.47;102215.34;6223156;22;20051;-76
2023/05/28 06:59:19;;;;;;;17.98;7.38;;;;;;;19.81;57.36;102208.81;6249113;22;20028;-76
2023/05/28 07:02:08;;;;;;;18.15;6.68;;;;;;;19.92;56.68;102213.63;6248039;22;20033;-77
2023/05/28 07:04:47;;;;;;;13.63;6.97;;;;;;;20.01;57.23;102218.16;6248684;22;20025;-78
2023/05/28 07:07:17;;;;;;;15.10;8.15;;;;;;;20.12;57.22;102218.31;6248152;22;20017;-78
2023/05/28 07:09:45;;;;;;;19.30;8.05;;;;;;;20.17;57.30;102220.38;6250434;22;20017;-76
2023/05/28 07:12:11;;;;;;;13.18;7.03;;;;;;;20.20;57.02;102222.13;6247997;22;20044;-79
2023/05/28 07:14:44;;;;;;;12.60;6.90;;;;;;;20.19;56.92;102224.09;6247968;22;20029;-79
2023/05/28 07:17:11;;;;;;;14.05;7.18;;;;;;;20.20;55.83;102232.94;6248163;22;20052;-79
2023/05/28 07:19:39;;;;;;;12.80;6.93;;;;;;;20.25;56.31;102240.41;6223548;22;20016;-79
2023/05/28 07:22:06;;;;;;;9.50;6.65;;;;;;;20.26;55.70;102239.19;6248265;22;20443;-77
2023/05/28 07:24:34;;;;;;;16.17;6.78;;;;;;;20.37;55.41;102236.63;6248300;22;20024;-76
2023/05/28 07:27:00;;;;;;;12.40;6.68;;;;;;;20.68;55.41;102248.84;6249440;22;20013;-77
2023/05/28 07:29:27;;;;;;;16.13;6.90;;;;;;;20.82;54.83;102245.31;6248391;22;20075;-78
2023/05/28 07:31:54;;;;;;;18.20;6.93;;;;;;;21.07;54.83;102241.16;6248575;22;20019;-77
2023/05/28 07:34:24;;;;;;;13.80;6.63;;;;;;;21.29;54.24;102244.09;6247712;22;20517;-77
2023/05/28 07:36:50;;;;;;;13.40;6.32;;;;;;;21.37;53.36;102247.88;6250480;22;20036;-77
2023/05/28 07:39:17;;;;;;;16.60;7.13;;;;;;;21.34;53.57;102254.25;6247978;22;20031;-77
2023/05/28 07:41:44;;;;;;;13.02;6.57;;;;;;;21.43;54.08;102253.34;6222749;22;20096;-78
2023/05/28 07:44:15;;;;;;;10.98;6.57;;;;;;;21.42;53.74;102246.44;6247646;22;20020;-77
2023/05/28 07:46:41;;;;;;;14.48;6.50;;;;;;;21.57;54.11;102239.69;6248360;22;20055;-78
2023/05/28 07:49:46;;;;;;;12.48;6.53;;;;;;;21.75;52.78;102243.28;6249914;22;20025;-78
2023/05/28 07:52:19;;;;;;;18.20;6.47;;;;;;;21.98;53.33;102253.06;6248029;22;20017;-78
2023/05/28 07:54:46;;;;;;;12.18;6.40;;;;;;;22.16;52.38;102247.28;6248324;22;20031;-78
2023/05/28 07:57:14;;;;;;;10.13;6.32;;;;;;;22.22;51.37;102250.00;6247038;22;20017;-77
2023/05/28 07:59:43;;;;;;;12.98;6.53;;;;;;;22.22;52.05;102258.16;6247529;22;20020;-76
2023/05/28 08:02:10;;;;;;;14.07;6.68;;;;;;;22.26;51.54;102251.28;6249651;22;20088;-76
2023/05/28 08:04:37;;;;;;;11.70;6.50;;;;;;;22.42;51.13;102249.88;6248287;22;20020;-78
2023/05/28 08:07:04;;;;;;;16.10;6.05;;;;;;;22.53;51.50;102249.91;6248022;22;20079;-77
2023/05/28 08:09:32;;;;;;;12.90;6.45;;;;;;;22.55;51.41;102246.72;6223069;22;20017;-77
2023/05/28 08:12:00;;;;;;;12.73;6.30;;;;;;;22.54;50.99;102243.25;6249280;22;20044;-77
2023/05/28 08:14:26;;;;;;;11.35;6.35;;;;;;;22.54;50.67;102247.94;6249550;22;20454;-77
2023/05/28 08:16:58;;;;;;;14.80;6.50;;;;;;;22.70;49.95;102243.81;6247963;22;20055;-78
2023/05/28 08:19:35;;;;;;;14.02;6.18;;;;;;;22.75;49.91;102243.09;6248162;22;20027;-78
2023/05/28 08:22:08;;;;;;;15.40;6.70;;;;;;;22.94;49.85;102250.34;6247469;22;20525;-77
2023/05/28 08:24:35;;;;;;;10.57;6.10;;;;;;;23.18;48.74;102249.16;6249664;22;20024;-78
2023/05/28 08:27:02;;;;;;;12.93;6.07;;;;;;;23.21;48.46;102245.44;6247509;22;20020;-78
2023/05/28 08:29:28;;;;;;;12.43;5.80;;;;;;;23.34;48.70;102244.97;6247554;22;20431;-78
2023/05/28 08:32:01;;;;;;;;;;;;;;;23.57;49.17;102244.53;6248429;22;20427;-77
2023/05/28 08:34:38;;;;;;;10.13;5.40;;;;;;;23.52;47.88;102239.06;6248084;22;19997;-78
2023/05/28 08:37:06;;;;;;;11.43;6.18;;;;;;;23.47;47.70;102242.53;6247655;22;20481;-77
2023/05/28 08:39:44;;;;;;;14.55;5.85;;;;;;;23.35;47.98;102236.34;6247191;22;20020;-78
2023/05/28 08:42:11;;;;;;;14.60;6.43;;;;;;;23.23;47.43;102232.84;6249274;22;20023;-78
2023/05/28 08:44:38;;;;;;;10.23;5.40;;;;;;;23.25;48.00;102232.38;6247832;22;20045;-79
2023/05/28 08:47:07;;;;;;;11.77;5.88;;;;;;;23.29;47.18;102244.47;6247580;22;20027;-78
2023/05/28 08:50:07;;;;;;;9.32;6.13;;;;;;;23.43;47.90;102239.31;6248144;22;20511;-79
2023/05/28 08:52:51;;;;;;;10.82;5.63;;;;;;;23.48;47.59;102239.31;6246081;22;20013;-78
2023/05/28 08:55:19;;;;;;;13.10;5.65;;;;;;;23.49;46.21;102231.91;6246393;22;20487;-78
2023/05/28 08:57:52;;;;;;;9.38;5.35;;;;;;;23.63;46.23;102233.63;6247715;22;20017;-78
2023/05/28 09:00:21;;;;;;;13.70;5.80;;;;;;;23.66;45.76;102238.09;6246972;22;20021;-78
2023/05/28 09:03:07;;;;;;;10.60;5.95;;;;;;;23.68;46.58;102240.31;6248748;22;20292;-78
2023/05/28 09:05:36;;;;;;;14.00;5.72;;;;;;;24.05;46.46;102237.28;6245484;22;20455;-78
2023/05/28 09:08:08;;;;;;;13.25;5.90;;;;;;;24.29;45.25;102232.06;6246164;22;20018;-77
2023/05/28 09:10:37;;;;;;;13.05;5.53;;;;;;;24.22;45.00;102232.53;6247298;22;20016;-78
2023/05/28 09:13:04;;;;;;;16.45;5.80;;;;;;;24.11;44.73;102232.56;6248673;22;20020;-77
2023/05/28 09:15:32;;;;;;;14.38;5.95;;;;;;;23.92;45.33;102229.66;6223839;22;20076;-79
2023/05/28 09:18:01;;;;;;;12.50;5.97;;;;;;;23.67;44.80;102233.38;6249035;22;20020;-79
2023/05/28 09:20:28;;;;;;;10.93;5.93;;;;;;;23.53;45.88;102241.31;6248146;22;20020;-79
2023/05/28 09:23:04;;;;;;;10.40;5.55;;;;;;;23.38;46.28;102229.91;6248662;22;20513;-78
2023/05/28 09:25:51;;;;;;;15.50;5.90;;;;;;;23.18;46.26;102238.31;6250447;22;20028;-78
2023/05/28 09:28:27;;;;;;;16.85;7.85;;;;;;;23.16;46.72;102235.34;6247679;22;20016;-78
2023/05/28 09:31:02;;;;;;;11.25;5.53;;;;;;;23.19;46.37;102229.63;6250636;22;20071;-78
2023/05/28 09:33:30;;;;;;;12.50;5.25;;;;;;;23.23;46.64;102224.69;6248722;22;20020;-78
2023/05/28 09:36:02;;;;;;;11.35;5.40;;;;;;;23.53;45.88;102229.69;6248906;22;20459;-78
2023/05/28 09:38:39;;;;;;;15.98;5.78;;;;;;;23.68;44.78;102226.72;6250185;22;20439;-78
2023/05/28 09:41:33;;;;;;;14.25;5.57;;;;;;;23.82;44.85;102215.59;6249098;22;20024;-78
2023/05/28 09:44:02;;;;;;;9.57;5.30;;;;;;;23.82;44.95;102229.19;6249207;22;20017;-78
2023/05/28 09:46:30;;;;;;;13.05;6.00;;;;;;;23.88;44.02;102226.44;6250433;22;20020;-78
2023/05/28 09:48:58;;;;;;;13.75;5.97;;;;;;;23.99;43.57;102221.00;6250961;22;20447;-78
2023/05/28 09:51:28;;;;;;;9.98;6.07;;;;;;;24.10;43.80;102217.50;6250557;22;20075;-78
2023/05/28 09:54:00;;;;;;;10.73;5.20;;;;;;;24.23;43.59;102210.28;6250523;22;20063;-77
2023/05/28 09:56:31;;;;;;;11.80;5.00;;;;;;;24.45;42.36;102216.91;6248783;22;20630;-77
2023/05/28 09:59:02;;;;;;;8.68;5.47;;;;;;;24.50;42.56;102216.88;6248541;22;20036;-81
2023/05/28 10:01:47;;;;;;;14.30;5.50;;;;;;;24.66;42.13;102222.75;6223608;22;20071;-78
2023/05/28 10:04:17;;;;;;;10.48;5.10;;;;;;;24.75;41.72;102214.28;6250443;22;20533;-78
2023/05/28 10:06:45;;;;;;;8.85;5.10;;;;;;;24.67;40.92;102214.09;6250285;22;20017;-79
2023/05/28 10:09:15;;;;;;;11.57;5.32;;;;;;;24.81;41.18;102214.97;6250557;22;20108;-79
2023/05/28 10:12:12;;;;;;;8.13;5.03;;;;;;;24.76;41.73;102216.50;6250863;22;20092;-79
2023/05/28 10:14:40;;;;;;;12.18;5.18;;;;;;;24.92;41.24;102204.75;6249153;22;20443;-79
2023/05/28 10:17:08;;;;;;;11.32;5.45;;;;;;;24.94;40.29;102209.69;6250462;22;20027;-80
2023/05/28 10:19:36;;;;;;;11.60;5.30;;;;;;;25.05;40.21;102214.38;6249138;22;20083;-77
2023/05/28 10:22:03;;;;;;;11.80;5.50;;;;;;;25.01;41.37;102217.38;6249813;22;20032;-78
2023/05/28 10:24:31;;;;;;;13.57;5.88;;;;;;;25.04;40.30;102210.16;6250632;22;20024;-77
2023/05/28 10:26:58;;;;;;;16.52;5.70;;;;;;;25.15;41.13;102215.53;6250690;22;20025;-77
2023/05/28 10:29:25;;;;;;;12.60;5.70;;;;;;;25.16;41.16;102217.03;6250320;22;20043;-78
2023/05/28 10:32:00;;;;;;;12.02;5.38;;;;;;;25.23;41.34;102203.56;6250738;22;20341;-78
2023/05/28 10:34:33;;;;;;;12.10;5.40;;;;;;;25.43;40.64;102213.34;6250463;22;20021;-78
2023/05/28 10:37:03;;;;;;;8.65;5.32;;;;;;;25.46;39.79;102211.56;6250022;22;20023;-78
2023/05/28 10:39:41;;;;;;;13.60;5.50;;;;;;;25.42;39.64;102206.41;6250380;22;20043;-77
2023/05/28 10:42:09;;;;;;;16.48;5.57;;;;;;;25.40;39.65;102205.44;6249996;22;20575;-77
2023/05/28 10:45:06;;;;;;;11.98;5.30;;;;;;;25.56;40.16;102210.00;6250514;22;20036;-78
2023/05/28 10:47:34;;;;;;;10.00;4.75;;;;;;;25.59;39.02;102211.72;6250622;22;20040;-80
2023/05/28 10:50:12;;;;;;;8.52;5.38;;;;;;;25.57;39.90;102203.31;6247992;22;20017;-79
2023/05/28 10:53:07;;;;;;;9.57;5.28;;;;;;;25.87;40.06;102212.19;6224911;22;20017;-80
2023/05/28 10:55:53;;;;;;;11.18;5.40;;;;;;;25.95;39.23;102215.09;6223786;22;20036;-77
2023/05/28 10:58:38;;;;;;;10.60;4.95;;;;;;;26.03;39.50;102217.97;6248283;22;20017;-80
2023/05/28 11:01:12;;;;;;;14.63;5.75;;;;;;;26.06;38.51;102212.22;6248604;22;20052;-79
2023/05/28 11:03:41;;;;;;;11.32;6.47;;;;;;;26.04;38.01;102206.53;6248765;22;20063;-80
2023/05/28 11:06:10;;;;;;;11.52;5.28;;;;;;;26.06;38.14;102201.31;6247483;22;20030;-80
2023/05/28 11:08:40;;;;;;;9.77;4.88;;;;;;;26.12;38.98;102207.44;6248678;22;20017;-80
2023/05/28 11:11:06;;;;;;;8.63;4.90;;;;;;;26.21;37.48;102212.56;6248519;22;20047;-79
2023/05/28 11:13:33;;;;;;;11.23;5.63;;;;;;;26.21;37.48;102206.34;6248517;22;20450;-79
2023/05/28 11:16:10;;;;;;;7.20;3.95;;;;;;;26.06;37.73;102206.78;6249947;22;20504;-79
2023/05/28 11:18:38;;;;;;;8.65;4.60;;;;;;;26.23;37.63;102207.31;6248459;22;20091;-79
2023/05/28 11:21:08;;;;;;;13.48;4.68;;;;;;;26.29;37.29;102204.53;6247841;22;20093;-79
2023/05/28 11:23:39;;;;;;;;;;;;;;;26.56;38.82;102208.19;6250859;22;20016;-78
2023/05/28 11:26:21;;;;;;;14.13;5.00;;;;;;;26.42;36.66;102210.09;6250313;22;19932;-79
2023/05/28 11:28:48;;;;;;;15.15;5.07;;;;;;;26.40;37.24;102211.84;6250539;22;20020;-79
2023/05/28 11:31:14;;;;;;;11.52;5.10;;;;;;;26.47;36.74;102205.81;6250156;22;20391;-79
2023/05/28 11:33:41;;;;;;;11.65;4.70;;;;;;;26.44;36.71;102207.56;6222141;22;20456;-79